Time;durP1;ratioP1;P1;durP2;ratioP2;P2;SDS_P1;SDS_P2;PMS_P1;PMS_P2;Temp;Humidity;BMP_temperature;BMP_pressure;BME280_temperature;BME280_humidity;BME280_pressure;Samples;Min_cycle;Max_cycle;Signal;HPM_P1;HPM_P2
2022/05/30 00:03:10;;;;;;;3.67;2.77;;;8.30;99.90;;;;;;8350108;28;20174;-79
2022/05/30 00:07:11;;;;;;;2.30;2.10;;;8.30;99.90;;;;;;8310730;28;20213;-79
2022/05/30 00:11:14;;;;;;;2.20;2.00;;;8.30;99.90;;;;;;8330965;28;20209;-79
2022/05/30 00:15:18;;;;;;;2.53;2.33;;;8.20;99.90;;;;;;8343487;28;20178;-80
2022/05/30 00:19:20;;;;;;;4.33;2.43;;;8.20;99.90;;;;;;8325626;28;20232;-78
2022/05/30 00:23:21;;;;;;;3.10;2.80;;;8.20;99.90;;;;;;8327467;28;20392;-79
2022/05/30 00:27:21;;;;;;;2.40;2.20;;;8.20;99.90;;;;;;8323643;28;20182;-79
2022/05/30 00:31:22;;;;;;;3.10;1.93;;;8.10;99.90;;;;;;8335790;28;20194;-78
2022/05/30 00:35:23;;;;;;;1.87;1.70;;;8.10;99.90;;;;;;8329320;28;20345;-80
2022/05/30 00:39:25;;;;;;;2.80;2.10;;;7.90;99.90;;;;;;8327715;28;20242;-79
2022/05/30 00:43:32;;;;;;;2.67;2.20;;;7.80;99.90;;;;;;8328681;28;20242;-79
2022/05/30 00:47:33;;;;;;;1.90;1.70;;;7.60;99.90;;;;;;8320543;28;20553;-79
2022/05/30 00:51:38;;;;;;;2.37;1.97;;;7.50;99.90;;;;;;8326022;28;20185;-80
2022/05/30 00:55:40;;;;;;;2.13;1.93;;;7.40;99.90;;;;;;8340595;28;20183;-79
2022/05/30 00:59:41;;;;;;;2.20;2.00;;;7.40;99.90;;;;;;8327384;28;20201;-80
2022/05/30 01:08:10;;;;;;;2.40;2.20;;;7.20;99.90;;;;;;8334603;28;20205;-78
2022/05/30 01:12:12;;;;;;;2.20;1.80;;;7.20;99.90;;;;;;8321480;28;20178;-79
2022/05/30 01:16:13;;;;;;;2.20;2.00;;;7.20;99.90;;;;;;8323713;28;20193;-79
2022/05/30 01:20:40;;;;;;;2.00;1.80;;;7.10;99.90;;;;;;8320859;28;20189;-79
2022/05/30 01:24:44;;;;;;;2.80;2.37;;;7.10;99.90;;;;;;8322455;28;20186;-79
2022/05/30 01:28:48;;;;;;;3.23;2.60;;;7.20;99.90;;;;;;8331963;28;20252;-78
2022/05/30 01:32:49;;;;;;;3.00;2.50;;;7.20;99.90;;;;;;8329960;28;20186;-79
2022/05/30 01:36:50;;;;;;;2.73;2.27;;;7.30;99.90;;;;;;8334022;28;20205;-79
2022/05/30 01:40:51;;;;;;;3.67;2.37;;;7.40;99.90;;;;;;8348028;28;20210;-80
2022/05/30 01:44:52;;;;;;;5.93;3.30;;;7.50;99.90;;;;;;8335550;28;20519;-79
2022/05/30 01:48:54;;;;;;;3.60;3.30;;;7.60;99.90;;;;;;8347311;28;20293;-79
2022/05/30 01:52:55;;;;;;;4.20;3.63;;;7.70;99.90;;;;;;8332671;28;20193;-79
2022/05/30 01:56:55;;;;;;;4.37;3.83;;;7.70;99.90;;;;;;8334186;28;20209;-78
2022/05/30 02:00:56;;;;;;;4.87;3.90;;;7.80;99.90;;;;;;8330906;28;20186;-78
2022/05/30 02:04:57;;;;;;;3.93;3.50;;;7.80;99.90;;;;;;8333675;28;20277;-78
2022/05/30 02:08:58;;;;;;;4.00;3.53;;;7.90;99.90;;;;;;8336285;28;20216;-80
2022/05/30 02:12:59;;;;;;;4.33;3.03;;;7.90;99.90;;;;;;8326354;28;20383;-79
2022/05/30 02:17:06;;;;;;;3.70;3.20;;;7.90;99.90;;;;;;8344536;28;20190;-79
2022/05/30 02:21:07;;;;;;;4.93;3.87;;;7.90;99.90;;;;;;8330024;28;20182;-78
2022/05/30 02:25:10;;;;;;;4.97;3.27;;;7.90;99.90;;;;;;8332646;28;20181;-78
2022/05/30 02:29:11;;;;;;;4.40;4.00;;;7.90;99.90;;;;;;8330257;28;20264;-78
2022/05/30 02:37:32;;;;;;;4.27;3.20;;;7.90;99.90;;;;;;8344446;28;20268;-78
2022/05/30 02:41:34;;;;;;;3.90;3.33;;;7.90;99.90;;;;;;8332292;28;20203;-79
2022/05/30 02:45:36;;;;;;;3.50;2.93;;;7.90;99.90;;;;;;8334237;28;20598;-78
2022/05/30 02:49:37;;;;;;;8.33;5.10;;;7.90;99.90;;;;;;8333456;28;20212;-79
2022/05/30 02:53:38;;;;;;;5.93;4.70;;;7.90;99.90;;;;;;8329688;28;20189;-79
2022/05/30 02:57:38;;;;;;;5.43;4.90;;;7.90;99.90;;;;;;8335795;28;20221;-79
2022/05/30 03:01:39;;;;;;;6.17;4.37;;;7.80;99.90;;;;;;8330167;28;20189;-80
2022/05/30 03:05:40;;;;;;;4.53;3.90;;;7.80;99.90;;;;;;8324102;28;20187;-77
2022/05/30 03:09:43;;;;;;;4.70;4.23;;;7.80;99.90;;;;;;8341781;28;20225;-76
2022/05/30 03:13:44;;;;;;;5.10;4.50;;;7.80;99.90;;;;;;8335170;28;20217;-80
2022/05/30 03:17:45;;;;;;;6.33;5.30;;;7.90;99.90;;;;;;8341592;28;20696;-76
2022/05/30 03:21:47;;;;;;;6.73;5.00;;;8.20;99.90;;;;;;8327591;28;20190;-76
2022/05/30 03:25:48;;;;;;;7.53;5.73;;;8.30;99.90;;;;;;8327405;28;20189;-75
2022/05/30 03:29:49;;;;;;;7.33;5.27;;;8.50;99.90;;;;;;8330419;28;20548;-81
2022/05/30 03:33:49;;;;;;;8.60;4.43;;;8.70;99.90;;;;;;8333750;28;20187;-77
2022/05/30 03:37:51;;;;;;;5.53;4.37;;;8.70;99.90;;;;;;8323855;28;20187;-78
2022/05/30 03:41:52;;;;;;;4.63;4.07;;;8.80;99.90;;;;;;8326508;28;20269;-77
2022/05/30 03:45:53;;;;;;;5.20;3.83;;;9.10;99.90;;;;;;8337012;28;20421;-78
2022/05/30 03:50:01;;;;;;;4.90;3.87;;;9.50;99.90;;;;;;8325491;28;20960;-77
2022/05/30 03:54:02;;;;;;;5.57;3.80;;;9.70;99.90;;;;;;8342136;28;20228;-76
2022/05/30 03:58:04;;;;;;;4.83;3.33;;;9.90;99.90;;;;;;8325495;28;20186;-81
2022/05/30 04:02:05;;;;;;;4.73;3.50;;;10.30;1.00;;;;;;8333792;28;20195;-76
2022/05/30 04:06:07;;;;;;;5.57;3.47;;;10.40;1.00;;;;;;8331979;28;20196;-79
2022/05/30 04:10:09;;;;;;;3.87;3.07;;;10.50;99.90;;;;;;8328824;28;20210;-75
2022/05/30 04:14:09;;;;;;;3.90;3.07;;;10.80;99.90;;;;;;8343505;28;20177;-81
2022/05/30 04:18:11;;;;;;;4.67;3.07;;;11.00;99.90;;;;;;8329479;28;20214;-81
2022/05/30 04:22:11;;;;;;;4.90;3.23;;;10.90;99.90;;;;;;8320987;28;20194;-77
2022/05/30 04:26:14;;;;;;;3.90;2.77;;;10.70;99.90;;;;;;8325186;28;20194;-75
2022/05/30 04:30:16;;;;;;;4.17;2.67;;;10.70;98.00;;;;;;8339795;28;20218;-75
2022/05/30 04:34:17;;;;;;;3.67;2.37;;;10.70;99.90;;;;;;8344303;28;20201;-75
2022/05/30 04:38:18;;;;;;;5.00;2.73;;;10.70;99.90;;;;;;8317174;28;20189;-81
2022/05/30 04:42:19;;;;;;;2.50;2.30;;;10.60;1.00;;;;;;8318424;28;20205;-75
2022/05/30 04:46:20;;;;;;;2.73;2.03;;;10.60;1.00;;;;;;8328689;28;20190;-75
2022/05/30 04:50:20;;;;;;;4.87;2.87;;;10.70;1.00;;;;;;8339912;28;20230;-78
2022/05/30 04:54:24;;;;;;;2.30;2.10;;;10.70;99.90;;;;;;8323175;28;20186;-76
2022/05/30 04:58:28;;;;;;;5.47;2.47;;;10.80;18.80;;;;;;8327670;28;20194;-78
2022/05/30 05:02:29;;;;;;;4.13;2.20;;;10.90;99.90;;;;;;8329443;28;20195;-80
2022/05/30 05:06:30;;;;;;;3.73;2.57;;;11.00;74.30;;;;;;8342022;28;20221;-77
2022/05/30 05:10:44;;;;;;;3.33;2.50;;;11.00;1.00;;;;;;8341974;28;20247;-76
2022/05/30 05:14:46;;;;;;;2.20;2.00;;;10.90;1.00;;;;;;8336127;28;20232;-77
2022/05/30 05:18:47;;;;;;;3.50;2.50;;;11.00;99.90;;;;;;8342877;28;20197;-80
2022/05/30 05:22:49;;;;;;;4.60;2.50;;;11.10;1.00;;;;;;8329408;28;20252;-78
2022/05/30 05:26:50;;;;;;;3.23;2.57;;;11.10;1.00;;;;;;8326416;28;20225;-76
2022/05/30 05:30:50;;;;;;;4.53;2.83;;;11.00;52.90;;;;;;8341339;28;20215;-78
2022/05/30 05:34:54;;;;;;;3.23;2.40;;;11.00;13.60;;;;;;8328911;28;20189;-74
2022/05/30 05:38:55;;;;;;;3.77;2.57;;;11.10;1.00;;;;;;8328969;28;20212;-80
2022/05/30 05:42:56;;;;;;;3.27;2.27;;;11.30;99.90;;;;;;8327672;28;20192;-79
2022/05/30 05:46:57;;;;;;;5.60;2.73;;;11.40;1.00;;;;;;8330016;28;20185;-80
2022/05/30 05:50:58;;;;;;;4.03;2.63;;;11.50;1.00;;;;;;8317458;28;20219;-76
2022/05/30 05:54:59;;;;;;;2.90;2.50;;;11.40;99.90;;;;;;8325871;28;20239;-78
2022/05/30 05:59:00;;;;;;;5.83;2.50;;;11.40;99.90;;;;;;8307104;28;20217;-77
2022/05/30 06:03:02;;;;;;;6.83;2.77;;;11.30;17.30;;;;;;8335995;28;20288;-78
2022/05/30 06:07:03;;;;;;;2.40;2.20;;;11.20;1.00;;;;;;8320291;28;20185;-80
2022/05/30 06:11:11;;;;;;;2.53;2.33;;;11.40;47.90;;;;;;8332699;28;20241;-77
2022/05/30 06:15:15;;;;;;;3.47;2.47;;;11.60;99.90;;;;;;8320103;28;20192;-78
2022/05/30 06:19:16;;;;;;;3.50;1.83;;;11.70;99.90;;;;;;8348891;28;20191;-79
2022/05/30 06:23:16;;;;;;;2.67;2.00;;;12.00;1.00;;;;;;8332171;28;20192;-77
2022/05/30 06:27:20;;;;;;;2.10;1.90;;;12.40;67.90;;;;;;8327078;28;20225;-80
2022/05/30 06:31:23;;;;;;;4.00;1.90;;;12.60;99.90;;;;;;8327122;28;20240;-79
2022/05/30 06:35:24;;;;;;;2.30;2.10;;;12.60;1.00;;;;;;8321967;28;20192;-76
2022/05/30 06:39:27;;;;;;;2.07;1.40;;;12.40;18.40;;;;;;8320866;28;20206;-77
2022/05/30 06:43:28;;;;;;;3.67;1.80;;;12.60;53.90;;;;;;8326086;28;20185;-77
2022/05/30 06:47:29;;;;;;;1.83;1.73;;;12.90;99.90;;;;;;8329979;28;20182;-77
2022/05/30 06:51:31;;;;;;;2.23;1.50;;;13.10;99.90;;;;;;8346641;28;20295;-76
2022/05/30 06:55:33;;;;;;;2.40;1.50;;;13.10;99.90;;;;;;8329880;28;20249;-80
2022/05/30 06:59:34;;;;;;;1.90;1.67;;;13.20;99.90;;;;;;8323527;28;20197;-80
2022/05/30 07:03:36;;;;;;;2.50;1.60;;;13.40;99.90;;;;;;8331278;28;20250;-75
2022/05/30 07:07:41;;;;;;;2.93;1.60;;;13.30;92.50;;;;;;8327474;28;20214;-80
2022/05/30 07:11:42;;;;;;;2.70;1.50;;;13.30;1.00;;;;;;8322105;28;20272;-80
2022/05/30 07:15:48;;;;;;;2.53;1.87;;;13.60;1.00;;;;;;8327785;28;20249;-78
2022/05/30 07:19:48;;;;;;;2.60;1.40;;;13.80;99.90;;;;;;8340332;28;20186;-77
2022/05/30 07:23:50;;;;;;;2.03;1.30;;;13.80;99.90;;;;;;8326928;28;20218;-76
2022/05/30 07:27:51;;;;;;;1.50;1.40;;;14.10;99.90;;;;;;8325512;28;20324;-75
2022/05/30 07:31:51;;;;;;;1.67;1.27;;;14.30;22.00;;;;;;8339049;28;20186;-77
2022/05/30 07:35:52;;;;;;;4.07;1.60;;;14.50;1.00;;;;;;8329768;28;20193;-76
2022/05/30 07:39:53;;;;;;;1.47;1.37;;;14.80;1.00;;;;;;8338570;28;20213;-77
2022/05/30 07:43:54;;;;;;;1.40;1.10;;;15.10;1.00;;;;;;8320578;28;20197;-76
2022/05/30 07:47:55;;;;;;;2.60;1.53;;;15.50;1.00;;;;;;8322242;28;20210;-78
2022/05/30 07:51:56;;;;;;;2.87;1.60;;;15.80;99.90;;;;;;8344043;28;20181;-78
2022/05/30 07:55:58;;;;;;;3.60;1.50;;;16.10;99.90;;;;;;8329112;28;20177;-77
2022/05/30 07:59:59;;;;;;;2.03;1.60;;;16.30;1.00;;;;;;8325871;28;20183;-77
2022/05/30 08:03:59;;;;;;;1.97;1.43;;;16.20;1.00;;;;;;8323512;28;20213;-79
2022/05/30 08:08:00;;;;;;;1.00;0.90;;;16.20;1.00;;;;;;8326505;28;20247;-75
2022/05/30 08:12:01;;;;;;;2.40;1.67;;;16.60;1.00;;;;;;8318703;28;20174;-79
2022/05/30 08:16:03;;;;;;;2.53;1.50;;;16.50;1.00;;;;;;8342477;28;20177;-76
2022/05/30 08:20:08;;;;;;;1.33;1.00;;;16.40;1.00;;;;;;8327370;28;20178;-77
2022/05/30 08:24:09;;;;;;;2.50;1.40;;;17.00;1.00;;;;;;8320674;28;20190;-79
2022/05/30 08:28:10;;;;;;;2.50;1.50;;;17.70;99.90;;;;;;8322442;28;20309;-79
2022/05/30 08:32:12;;;;;;;1.83;1.10;;;18.10;99.90;;;;;;8322773;28;20207;-77
2022/05/30 08:36:15;;;;;;;1.50;1.00;;;18.60;99.90;;;;;;8328186;28;20220;-76
2022/05/30 08:44:43;;;;;;;1.70;1.17;;;19.20;99.90;;;;;;8342348;28;20311;-76
2022/05/30 08:49:14;;;;;;;1.53;1.10;;;19.20;97.20;;;;;;8319710;28;20501;-76
2022/05/30 08:53:31;;;;;;;4.07;1.30;;;18.80;99.30;;;;;;8322977;28;20182;-78
2022/05/30 08:57:40;;;;;;;3.33;2.07;;;18.80;99.90;;;;;;8322314;28;20196;-80
2022/05/30 09:01:52;;;;;;;2.40;1.27;;;18.70;99.90;;;;;;8326480;28;20185;-77
2022/05/30 09:06:08;;;;;;;1.63;1.50;;;18.30;99.90;;;;;;8331413;28;20189;-77
2022/05/30 09:10:33;;;;;;;3.50;1.60;;;17.80;99.90;;;;;;8321565;28;20202;-78
2022/05/30 09:14:39;;;;;;;3.30;2.40;;;17.50;99.90;;;;;;8341602;28;20174;-77
2022/05/30 09:18:45;;;;;;;3.53;2.20;;;17.50;99.90;;;;;;8327474;28;20191;-76
2022/05/30 09:22:47;;;;;;;2.07;1.50;;;17.50;99.90;;;;;;8317052;28;20198;-78
2022/05/30 09:26:48;;;;;;;2.13;1.13;;;17.60;99.90;;;;;;8342393;28;20192;-76
2022/05/30 09:30:49;;;;;;;3.40;1.03;;;17.70;82.00;;;;;;8319858;28;20209;-77
2022/05/30 09:34:53;;;;;;;3.00;1.60;;;17.70;63.70;;;;;;8327042;28;20182;-76
2022/05/30 09:39:14;;;;;;;4.63;1.47;;;17.80;83.80;;;;;;8316432;28;20222;-78
2022/05/30 09:43:40;;;;;;;6.53;2.50;;;18.30;83.10;;;;;;8323871;28;20178;-76
2022/05/30 09:48:01;;;;;;;6.63;2.80;;;18.90;31.10;;;;;;8340905;28;20182;-80
2022/05/30 09:52:26;;;;;;;3.97;1.60;;;19.30;25.70;;;;;;8347816;28;20180;-76
2022/05/30 09:56:29;;;;;;;2.70;1.33;;;19.50;6.90;;;;;;8331576;28;20182;-76
2022/05/30 10:00:30;;;;;;;2.40;1.20;;;19.60;1.00;;;;;;8324458;28;20182;-79
2022/05/30 10:04:36;;;;;;;3.17;1.50;;;19.50;1.00;;;;;;8333373;28;20179;-77
2022/05/30 10:08:37;;;;;;;4.10;1.33;;;19.20;1.00;;;;;;8332537;28;20194;-76
2022/05/30 10:12:44;;;;;;;3.03;1.63;;;19.10;1.00;;;;;;8332554;28;20231;-79
2022/05/30 10:16:45;;;;;;;2.13;1.03;;;19.40;1.00;;;;;;8334494;28;20209;-80
2022/05/30 10:21:08;;;;;;;3.13;1.50;;;19.60;1.00;;;;;;8336858;28;20194;-76
2022/05/30 10:30:31;;;;;;;2.17;1.20;;;18.60;26.40;;;;;;8338625;28;20218;-78
2022/05/30 10:34:53;;;;;;;2.30;1.30;;;18.00;2.70;;;;;;8333577;28;20224;-77
2022/05/30 10:39:03;;;;;;;2.23;1.47;;;17.40;68.50;;;;;;8345489;28;20225;-76
2022/05/30 10:43:18;;;;;;;2.43;1.40;;;16.80;99.90;;;;;;8344477;28;20205;-80
2022/05/30 10:47:45;;;;;;;2.83;1.40;;;16.00;99.90;;;;;;8345090;28;20189;-81
2022/05/30 10:52:10;;;;;;;3.47;1.20;;;15.60;99.90;;;;;;8333034;28;20190;-81
2022/05/30 10:56:42;;;;;;;1.73;0.90;;;15.20;99.90;;;;;;8327857;28;20193;-80
2022/05/30 11:01:09;;;;;;;2.23;1.30;;;14.40;1.00;;;;;;8322247;28;20204;-78
2022/05/30 11:05:35;;;;;;;1.73;1.00;;;13.70;1.00;;;;;;8325748;28;20194;-75
2022/05/30 11:09:47;;;;;;;1.83;1.43;;;12.70;99.90;;;;;;8329241;28;20228;-79
2022/05/30 11:14:04;;;;;;;2.67;1.37;;;11.80;1.00;;;;;;8332126;28;20244;-78
2022/05/30 11:18:09;;;;;;;2.27;1.50;;;11.20;1.00;;;;;;8339147;28;20241;-80
2022/05/30 11:22:14;;;;;;;1.73;1.40;;;10.80;99.90;;;;;;8326475;28;20189;-75
2022/05/30 11:26:29;;;;;;;2.60;1.90;;;10.50;1.00;;;;;;8325038;28;20178;-78
2022/05/30 11:30:47;;;;;;;2.13;1.77;;;10.10;1.00;;;;;;8332689;28;20308;-76
2022/05/30 11:35:00;;;;;;;1.50;1.40;;;10.20;1.00;;;;;;8328825;28;20190;-75
2022/05/30 11:39:30;;;;;;;1.83;1.20;;;10.60;99.90;;;;;;8337782;28;20202;-82
2022/05/30 11:43:36;;;;;;;1.30;1.20;;;11.20;99.90;;;;;;8312593;28;20193;-75
2022/05/30 11:48:02;;;;;;;2.70;2.10;;;11.70;1.00;;;;;;8339948;28;20253;-77
2022/05/30 11:52:12;;;;;;;4.07;1.20;;;12.40;1.00;;;;;;8325998;28;20206;-81
2022/05/30 11:56:25;;;;;;;1.97;1.13;;;13.10;1.00;;;;;;8343074;28;20185;-76
2022/05/30 12:00:36;;;;;;;1.30;1.00;;;13.60;99.90;;;;;;8328697;28;20190;-75
2022/05/30 12:05:05;;;;;;;2.30;1.07;;;14.30;99.90;;;;;;8332955;28;20197;-77
2022/05/30 12:09:33;;;;;;;3.20;0.90;;;15.20;99.90;;;;;;8319698;28;20218;-78
2022/05/30 12:13:50;;;;;;;1.20;0.70;;;16.10;28.60;;;;;;8329731;28;20351;-78
2022/05/30 12:26:48;;;;;;;1.27;0.77;;;16.40;99.90;;;;;;8335581;28;20240;-80
2022/05/30 12:30:55;;;;;;;1.07;0.70;;;16.50;99.90;;;;;;8328150;28;20210;-78
2022/05/30 12:35:18;;;;;;;0.87;0.70;;;16.50;95.40;;;;;;8330346;28;20187;-80
2022/05/30 12:39:34;;;;;;;1.60;1.17;;;16.00;99.90;;;;;;8330140;28;20217;-80
2022/05/30 12:43:43;;;;;;;2.63;0.60;;;16.20;99.90;;;;;;8318283;28;20187;-80
2022/05/30 12:47:54;;;;;;;2.73;0.90;;;16.10;99.90;;;;;;8329437;28;20212;-77
2022/05/30 12:52:11;;;;;;;0.97;0.73;;;15.80;99.90;;;;;;8320021;28;20192;-78
2022/05/30 12:56:35;;;;;;;1.43;0.80;;;15.80;99.90;;;;;;8323636;28;20558;-77
2022/05/30 13:00:36;;;;;;;1.47;0.80;;;15.90;99.90;;;;;;8327358;28;20193;-77
2022/05/30 13:04:50;;;;;;;1.37;0.90;;;15.80;99.90;;;;;;8323201;28;20178;-76
2022/05/30 13:09:18;;;;;;;1.10;0.83;;;15.10;99.90;;;;;;8327847;28;20202;-76
2022/05/30 13:13:29;;;;;;;0.50;0.50;;;14.00;99.90;;;;;;8326268;28;20335;-80
2022/05/30 13:18:09;;;;;;;1.00;0.90;;;12.80;46.30;;;;;;8318590;28;20189;-78
2022/05/30 13:22:10;;;;;;;1.30;0.90;;;12.20;99.90;;;;;;8335337;28;20197;-78
2022/05/30 13:26:18;;;;;;;1.10;0.70;;;12.50;99.90;;;;;;8333738;28;20248;-78
2022/05/30 13:30:27;;;;;;;2.50;0.73;;;12.90;1.00;;;;;;8335088;28;20225;-75
2022/05/30 13:34:30;;;;;;;1.17;0.83;;;13.20;99.90;;;;;;8333677;28;20302;-81
2022/05/30 13:38:37;;;;;;;1.37;1.27;;;13.80;1.00;;;;;;8329698;28;20191;-76
2022/05/30 13:42:53;;;;;;;1.33;1.10;;;14.40;99.90;;;;;;8335502;28;20188;-76
2022/05/30 13:47:05;;;;;;;1.20;0.90;;;14.80;1.00;;;;;;8347134;28;20189;-75
2022/05/30 13:51:11;;;;;;;2.83;1.60;;;15.10;99.90;;;;;;8329919;28;20248;-77
2022/05/30 13:55:22;;;;;;;2.43;2.23;;;15.30;99.90;;;;;;8344639;28;20270;-78
2022/05/30 13:59:35;;;;;;;1.50;0.70;;;15.40;99.90;;;;;;8331440;28;20185;-77
2022/05/30 14:03:41;;;;;;;0.97;0.80;;;15.40;26.20;;;;;;8334959;28;20183;-80
2022/05/30 14:07:49;;;;;;;1.20;1.10;;;15.60;1.00;;;;;;8323084;28;20195;-78
2022/05/30 14:11:58;;;;;;;5.73;5.30;;;15.50;1.00;;;;;;8326616;28;20305;-77
2022/05/30 14:16:01;;;;;;;2.80;2.47;;;15.40;1.00;;;;;;8333711;28;20287;-78
2022/05/30 14:20:11;;;;;;;1.67;1.57;;;15.30;99.90;;;;;;8326304;28;20186;-77
2022/05/30 14:24:33;;;;;;;1.93;1.10;;;15.50;70.00;;;;;;8333019;28;20182;-79
2022/05/30 14:28:50;;;;;;;2.17;1.20;;;15.70;1.00;;;;;;8332795;28;20229;-76
2022/05/30 14:33:05;;;;;;;5.73;3.70;;;15.90;99.90;;;;;;8323235;28;20183;-76
2022/05/30 14:37:25;;;;;;;5.57;3.70;;;15.90;99.90;;;;;;8323980;28;20245;-77
2022/05/30 14:41:34;;;;;;;4.80;3.80;;;15.70;99.90;;;;;;8326126;28;20299;-79
2022/05/30 14:45:44;;;;;;;4.17;2.60;;;15.70;1.00;;;;;;8327682;28;20191;-79
2022/05/30 14:49:55;;;;;;;1.97;1.53;;;15.80;1.00;;;;;;8326361;28;20612;-76
2022/05/30 14:54:09;;;;;;;3.10;2.43;;;15.90;99.90;;;;;;8331048;28;20190;-79
2022/05/30 14:58:25;;;;;;;3.03;2.73;;;15.80;99.90;;;;;;8328458;28;20316;-76
2022/05/30 15:07:14;;;;;;;2.07;1.50;;;15.40;99.90;;;;;;8317494;28;20276;-75
2022/05/30 15:11:19;;;;;;;0.90;0.90;;;15.40;99.90;;;;;;8337955;28;20206;-79
2022/05/30 15:15:20;;;;;;;0.90;0.83;;;15.30;99.90;;;;;;8327447;28;20185;-81
2022/05/30 15:19:21;;;;;;;5.57;5.13;;;15.30;99.90;;;;;;8338421;28;20193;-80
2022/05/30 15:23:22;;;;;;;1.80;1.43;;;15.30;99.90;;;;;;8324273;28;20388;-79
2022/05/30 15:27:25;;;;;;;1.43;1.13;;;15.40;99.90;;;;;;8325817;28;20216;-76
2022/05/30 15:31:27;;;;;;;3.63;1.20;;;15.40;1.00;;;;;;8337349;28;20213;-78
2022/05/30 15:35:28;;;;;;;1.87;1.30;;;15.40;99.90;;;;;;8327284;28;20179;-75
2022/05/30 15:39:30;;;;;;;2.63;1.30;;;15.20;1.00;;;;;;8329354;28;20213;-76
2022/05/30 15:43:31;;;;;;;1.60;1.40;;;15.00;1.00;;;;;;8329735;28;20212;-75
2022/05/30 15:47:32;;;;;;;1.83;1.70;;;14.60;26.70;;;;;;8332401;28;20194;-76
2022/05/30 15:51:35;;;;;;;1.83;1.60;;;14.30;99.90;;;;;;8323013;28;20218;-77
2022/05/30 15:59:57;;;;;;;1.90;1.53;;;13.30;1.00;;;;;;8345311;28;20288;-76
2022/05/30 16:03:58;;;;;;;2.13;1.40;;;13.00;55.40;;;;;;8322506;28;20272;-76
2022/05/30 16:08:10;;;;;;;1.43;1.27;;;12.80;1.00;;;;;;8326735;28;20186;-75
2022/05/30 16:12:21;;;;;;;1.43;1.33;;;12.80;1.00;;;;;;8320572;28;20189;-76
2022/05/30 16:16:23;;;;;;;3.27;1.47;;;12.90;99.90;;;;;;8340725;28;20203;-76
2022/05/30 16:20:24;;;;;;;1.40;1.20;;;12.90;99.90;;;;;;8327623;28;20205;-80
2022/05/30 16:24:26;;;;;;;2.43;1.50;;;12.90;1.00;;;;;;8328006;28;20186;-80
2022/05/30 16:28:27;;;;;;;1.40;1.20;;;13.10;1.00;;;;;;8332860;28;20217;-80
2022/05/30 16:32:28;;;;;;;1.47;1.23;;;13.30;1.00;;;;;;8320372;28;20228;-76
2022/05/30 16:36:38;;;;;;;1.40;1.27;;;13.50;99.90;;;;;;8328020;28;20308;-77
2022/05/30 16:40:39;;;;;;;2.20;1.70;;;13.70;99.90;;;;;;8343619;28;20285;-77
2022/05/30 16:44:40;;;;;;;1.80;1.40;;;13.90;99.90;;;;;;8326609;28;20439;-75
2022/05/30 16:48:45;;;;;;;2.00;1.13;;;14.10;1.00;;;;;;8325758;28;20276;-81
2022/05/30 16:52:46;;;;;;;2.20;1.33;;;14.30;99.90;;;;;;8322901;28;20186;-80
2022/05/30 16:56:49;;;;;;;2.30;2.10;;;14.50;99.90;;;;;;8329637;28;20193;-76
2022/05/30 17:00:51;;;;;;;4.90;3.40;;;14.70;1.00;;;;;;8319516;28;20190;-80
2022/05/30 17:04:52;;;;;;;3.53;2.80;;;15.00;1.00;;;;;;8342083;28;20252;-78
2022/05/30 17:08:58;;;;;;;3.23;1.93;;;15.30;99.90;;;;;;8323988;28;20668;-79
2022/05/30 17:12:59;;;;;;;2.90;1.50;;;15.80;8.30;;;;;;8324229;28;20293;-80
2022/05/30 17:17:00;;;;;;;2.23;1.83;;;16.50;99.90;;;;;;8332213;28;20186;-76
2022/05/30 17:21:00;;;;;;;2.93;1.50;;;17.70;1.00;;;;;;8322282;28;20233;-77
2022/05/30 17:25:01;;;;;;;2.13;1.50;;;18.20;99.90;;;;;;8344871;28;20192;-75
2022/05/30 17:29:07;;;;;;;1.53;0.87;;;17.90;99.90;;;;;;8338993;28;20205;-77
2022/05/30 17:33:08;;;;;;;1.53;0.80;;;17.70;99.90;;;;;;8329942;28;20288;-79
2022/05/30 17:37:09;;;;;;;1.83;1.40;;;17.30;99.90;;;;;;8328796;28;20186;-77
2022/05/30 17:41:10;;;;;;;1.27;1.00;;;16.70;99.90;;;;;;8320645;28;20205;-76
2022/05/30 17:45:12;;;;;;;1.30;1.00;;;16.10;1.00;;;;;;8320736;28;20186;-78
2022/05/30 17:49:36;;;;;;;1.50;1.40;;;15.60;99.90;;;;;;8325090;28;20265;-75
2022/05/30 17:53:38;;;;;;;1.27;1.10;;;15.00;1.00;;;;;;8331137;28;20323;-78
2022/05/30 17:57:40;;;;;;;2.00;1.30;;;14.50;99.90;;;;;;8327362;28;20178;-75
2022/05/30 18:01:41;;;;;;;1.90;1.70;;;14.00;8.10;;;;;;8331684;28;20214;-77
2022/05/30 18:05:42;;;;;;;1.70;1.60;;;13.60;1.00;;;;;;8327390;28;20236;-78
2022/05/30 18:09:46;;;;;;;3.83;3.00;;;13.20;99.90;;;;;;8326139;28;20241;-79
2022/05/30 18:14:05;;;;;;;6.17;4.80;;;12.50;1.00;;;;;;8328971;28;20189;-76
2022/05/30 18:23:20;;;;;;;5.30;3.80;;;11.60;99.90;;;;;;8349240;28;20648;-76
2022/05/30 18:27:22;;;;;;;8.03;3.83;;;11.50;1.00;;;;;;8329973;28;20199;-80
2022/05/30 18:31:48;;;;;;;4.40;3.67;;;11.40;43.90;;;;;;8330601;28;20218;-77
2022/05/30 18:36:07;;;;;;;4.57;3.90;;;11.30;99.90;;;;;;8331251;28;20193;-77
2022/05/30 18:40:24;;;;;;;5.23;4.67;;;11.20;99.90;;;;;;8341512;28;20297;-80
2022/05/30 18:45:07;;;;;;;6.77;5.40;;;11.20;99.90;;;;;;8323303;28;20213;-77
2022/05/30 18:49:30;;;;;;;6.20;4.63;;;11.10;99.90;;;;;;8341538;28;20202;-81
2022/05/30 18:53:31;;;;;;;4.50;3.23;;;11.10;99.90;;;;;;8334690;28;20208;-78
2022/05/30 18:57:39;;;;;;;6.73;4.43;;;11.00;99.90;;;;;;8330771;28;20228;-77
2022/05/30 19:01:40;;;;;;;6.37;4.70;;;10.80;99.90;;;;;;8326492;28;20179;-78
2022/05/30 19:05:42;;;;;;;6.40;4.53;;;10.70;99.90;;;;;;8329011;28;20187;-77
2022/05/30 19:09:45;;;;;;;6.50;4.80;;;10.50;99.90;;;;;;8328280;28;20210;-75
2022/05/30 19:14:05;;;;;;;5.00;3.60;;;10.30;99.90;;;;;;8325210;28;20214;-80
2022/05/30 19:18:43;;;;;;;3.93;3.37;;;10.10;99.90;;;;;;8339665;28;20185;-81
2022/05/30 19:22:48;;;;;;;4.67;3.40;;;9.90;99.90;;;;;;8330248;28;20186;-77
2022/05/30 19:26:50;;;;;;;4.67;3.23;;;9.80;99.90;;;;;;8325266;28;20300;-76
2022/05/30 19:30:51;;;;;;;3.97;3.20;;;9.70;99.90;;;;;;8325909;28;20261;-79
2022/05/30 19:34:52;;;;;;;4.30;3.73;;;9.60;99.90;;;;;;8333476;28;20598;-78
2022/05/30 19:38:54;;;;;;;3.67;3.17;;;9.60;99.90;;;;;;8331930;28;20504;-78
2022/05/30 19:42:57;;;;;;;4.00;3.30;;;9.60;99.90;;;;;;8333532;28;20364;-79
2022/05/30 19:46:59;;;;;;;3.83;3.53;;;9.60;99.90;;;;;;8333696;28;20193;-79
2022/05/30 19:51:01;;;;;;;3.60;3.30;;;9.70;99.90;;;;;;8329217;28;20213;-78
2022/05/30 19:55:22;;;;;;;3.67;3.30;;;9.70;99.90;;;;;;8325409;28;20185;-79
2022/05/30 19:59:23;;;;;;;2.80;2.60;;;9.80;99.90;;;;;;8326198;28;20197;-79
2022/05/30 20:03:24;;;;;;;3.00;2.40;;;9.90;99.90;;;;;;8329256;28;20265;-79
2022/05/30 20:07:25;;;;;;;2.70;2.50;;;10.00;99.90;;;;;;8329008;28;20285;-80
2022/05/30 20:11:35;;;;;;;2.70;2.50;;;10.00;99.90;;;;;;8335886;28;20210;-80
2022/05/30 20:15:37;;;;;;;2.83;2.53;;;9.80;99.90;;;;;;8320965;28;20174;-81
2022/05/30 20:19:41;;;;;;;3.10;2.80;;;9.70;99.90;;;;;;8333553;28;20190;-80
2022/05/30 20:23:42;;;;;;;2.50;2.27;;;9.60;99.90;;;;;;8331436;28;20209;-80
2022/05/30 20:27:45;;;;;;;2.60;2.40;;;9.40;99.90;;;;;;8327858;28;20217;-79
2022/05/30 20:31:46;;;;;;;3.00;2.70;;;9.20;99.90;;;;;;8325622;28;20308;-79
2022/05/30 20:35:47;;;;;;;2.23;2.03;;;9.00;99.90;;;;;;8328630;28;20239;-78
2022/05/30 20:39:49;;;;;;;2.53;2.30;;;8.80;99.90;;;;;;8327599;28;20216;-80
2022/05/30 20:43:52;;;;;;;2.53;2.33;;;8.60;99.90;;;;;;8323933;28;20231;-80
2022/05/30 20:47:53;;;;;;;2.80;2.60;;;8.40;99.90;;;;;;8342836;28;20185;-80
2022/05/30 20:51:56;;;;;;;2.40;2.20;;;8.20;99.90;;;;;;8328209;28;20203;-80
2022/05/30 20:55:57;;;;;;;2.30;2.10;;;8.10;99.90;;;;;;8322411;28;20184;-78
2022/05/30 20:59:57;;;;;;;2.30;2.10;;;7.90;99.90;;;;;;8320322;28;20186;-79
2022/05/30 21:03:59;;;;;;;2.53;2.33;;;7.80;99.90;;;;;;8321665;28;20182;-80
2022/05/30 21:08:00;;;;;;;2.07;1.97;;;7.70;99.90;;;;;;8338188;28;20188;-79
2022/05/30 21:12:01;;;;;;;2.47;2.27;;;7.50;99.90;;;;;;8336605;28;20214;-79
2022/05/30 21:16:18;;;;;;;1.90;1.80;;;7.40;99.90;;;;;;8334462;28;20234;-79
2022/05/30 21:20:20;;;;;;;2.33;2.10;;;7.20;99.90;;;;;;8329773;28;20186;-79
2022/05/30 21:24:21;;;;;;;1.90;1.80;;;7.10;99.90;;;;;;8337289;28;20446;-80
2022/05/30 21:28:22;;;;;;;1.90;1.80;;;7.00;99.90;;;;;;8327905;28;20249;-79
2022/05/30 21:32:42;;;;;;;2.20;2.00;;;6.90;99.90;;;;;;8327110;28;20265;-79
2022/05/30 21:36:48;;;;;;;2.17;1.70;;;6.80;99.90;;;;;;8343033;28;20178;-79
2022/05/30 21:40:49;;;;;;;2.10;1.77;;;6.70;99.90;;;;;;8321753;28;20220;-79
2022/05/30 21:44:50;;;;;;;2.43;2.23;;;6.60;99.90;;;;;;8325554;28;20189;-79
2022/05/30 21:48:52;;;;;;;2.40;2.20;;;6.50;99.90;;;;;;8333680;28;20271;-78
2022/05/30 21:52:53;;;;;;;3.13;2.83;;;6.50;99.90;;;;;;8328621;28;20197;-79
2022/05/30 22:01:15;;;;;;;2.83;2.33;;;6.50;99.90;;;;;;8338288;28;20225;-80
2022/05/30 22:05:17;;;;;;;2.63;2.43;;;6.50;99.90;;;;;;8334642;28;20186;-78
2022/05/30 22:09:18;;;;;;;3.13;2.83;;;6.40;99.90;;;;;;8327724;28;20215;-80
2022/05/30 22:13:19;;;;;;;3.33;2.93;;;6.30;99.90;;;;;;8328542;28;20193;-79
2022/05/30 22:17:20;;;;;;;4.87;3.53;;;6.20;99.90;;;;;;8328624;28;20255;-80